sensor_id;sensor_type;location;lat;lon;timestamp;P1;durP1;ratioP1;P2;durP2;ratioP2
71777;SDS011;59609;52.430;4.668;2022-07-06T00:01:47;6.22;;;1.10;;
71777;SDS011;59609;52.430;4.668;2022-07-06T00:04:12;3.97;;;1.00;;
71777;SDS011;59609;52.430;4.668;2022-07-06T00:06:38;3.33;;;1.33;;
71777;SDS011;59609;52.430;4.668;2022-07-06T00:09:04;1.38;;;0.80;;
71777;SDS011;59609;52.430;4.668;2022-07-06T00:11:30;2.28;;;1.10;;
71777;SDS011;59609;52.430;4.668;2022-07-06T00:13:56;3.15;;;0.90;;
71777;SDS011;59609;52.430;4.668;2022-07-06T00:16:21;2.97;;;0.85;;
71777;SDS011;59609;52.430;4.668;2022-07-06T00:18:47;3.63;;;0.82;;
71777;SDS011;59609;52.430;4.668;2022-07-06T00:21:13;1.95;;;0.52;;
71777;SDS011;59609;52.430;4.668;2022-07-06T00:23:38;2.20;;;0.70;;
71777;SDS011;59609;52.430;4.668;2022-07-06T00:26:04;2.10;;;1.08;;
71777;SDS011;59609;52.430;4.668;2022-07-06T00:28:29;2.38;;;0.98;;
71777;SDS011;59609;52.430;4.668;2022-07-06T00:30:55;1.33;;;0.80;;
71777;SDS011;59609;52.430;4.668;2022-07-06T00:33:21;1.02;;;0.70;;
71777;SDS011;59609;52.430;4.668;2022-07-06T00:35:46;3.75;;;0.75;;
71777;SDS011;59609;52.430;4.668;2022-07-06T00:38:12;4.03;;;1.00;;
71777;SDS011;59609;52.430;4.668;2022-07-06T00:40:37;3.72;;;0.80;;
71777;SDS011;59609;52.430;4.668;2022-07-06T00:43:02;1.65;;;0.90;;
71777;SDS011;59609;52.430;4.668;2022-07-06T00:45:28;2.28;;;0.70;;
71777;SDS011;59609;52.430;4.668;2022-07-06T00:47:53;1.95;;;1.00;;
71777;SDS011;59609;52.430;4.668;2022-07-06T00:50:19;2.25;;;0.90;;
71777;SDS011;59609;52.430;4.668;2022-07-06T00:55:15;1.10;;;0.70;;
71777;SDS011;59609;52.430;4.668;2022-07-06T00:57:43;2.38;;;0.80;;
71777;SDS011;59609;52.430;4.668;2022-07-06T01:00:10;1.13;;;0.80;;
71777;SDS011;59609;52.430;4.668;2022-07-06T01:02:37;2.80;;;0.85;;
71777;SDS011;59609;52.430;4.668;2022-07-06T01:05:06;1.88;;;0.70;;
71777;SDS011;59609;52.430;4.668;2022-07-06T01:07:33;3.42;;;1.10;;
71777;SDS011;59609;52.430;4.668;2022-07-06T01:09:59;3.00;;;1.15;;
71777;SDS011;59609;52.430;4.668;2022-07-06T01:12:24;2.45;;;0.80;;
71777;SDS011;59609;52.430;4.668;2022-07-06T01:14:50;1.60;;;0.80;;
71777;SDS011;59609;52.430;4.668;2022-07-06T01:17:16;2.42;;;0.85;;
71777;SDS011;59609;52.430;4.668;2022-07-06T01:19:42;4.00;;;1.02;;
71777;SDS011;59609;52.430;4.668;2022-07-06T01:22:08;0.95;;;0.77;;
71777;SDS011;59609;52.430;4.668;2022-07-06T01:24:35;0.98;;;0.70;;
71777;SDS011;59609;52.430;4.668;2022-07-06T01:27:01;1.00;;;0.75;;
71777;SDS011;59609;52.430;4.668;2022-07-06T01:29:28;1.95;;;1.02;;
71777;SDS011;59609;52.430;4.668;2022-07-06T01:31:54;3.08;;;0.93;;
71777;SDS011;59609;52.430;4.668;2022-07-06T01:34:20;3.15;;;0.88;;
71777;SDS011;59609;52.430;4.668;2022-07-06T01:36:46;1.25;;;1.05;;
71777;SDS011;59609;52.430;4.668;2022-07-06T01:39:11;2.17;;;0.85;;
71777;SDS011;59609;52.430;4.668;2022-07-06T01:41:37;4.30;;;0.93;;
71777;SDS011;59609;52.430;4.668;2022-07-06T01:44:03;1.10;;;0.90;;
71777;SDS011;59609;52.430;4.668;2022-07-06T01:46:29;3.22;;;0.80;;
71777;SDS011;59609;52.430;4.668;2022-07-06T01:48:54;5.30;;;0.88;;
71777;SDS011;59609;52.430;4.668;2022-07-06T01:51:20;1.80;;;0.70;;
71777;SDS011;59609;52.430;4.668;2022-07-06T01:53:45;0.85;;;0.70;;
71777;SDS011;59609;52.430;4.668;2022-07-06T01:56:11;0.90;;;0.80;;
71777;SDS011;59609;52.430;4.668;2022-07-06T01:58:37;1.88;;;1.10;;
71777;SDS011;59609;52.430;4.668;2022-07-06T02:01:09;2.10;;;1.00;;
71777;SDS011;59609;52.430;4.668;2022-07-06T02:03:35;1.92;;;0.85;;
71777;SDS011;59609;52.430;4.668;2022-07-06T02:06:01;1.60;;;0.70;;
71777;SDS011;59609;52.430;4.668;2022-07-06T02:08:26;1.77;;;0.77;;
71777;SDS011;59609;52.430;4.668;2022-07-06T02:10:52;2.05;;;0.90;;
71777;SDS011;59609;52.430;4.668;2022-07-06T02:13:17;1.40;;;0.93;;
71777;SDS011;59609;52.430;4.668;2022-07-06T02:15:43;3.75;;;1.20;;
71777;SDS011;59609;52.430;4.668;2022-07-06T02:18:08;0.80;;;0.80;;
71777;SDS011;59609;52.430;4.668;2022-07-06T02:20:33;1.77;;;0.85;;
71777;SDS011;59609;52.430;4.668;2022-07-06T02:22:59;2.35;;;0.90;;
71777;SDS011;59609;52.430;4.668;2022-07-06T02:25:24;3.33;;;0.90;;
71777;SDS011;59609;52.430;4.668;2022-07-06T02:27:49;4.90;;;0.90;;
71777;SDS011;59609;52.430;4.668;2022-07-06T02:30:15;1.30;;;0.90;;
71777;SDS011;59609;52.430;4.668;2022-07-06T02:32:40;1.00;;;0.80;;
71777;SDS011;59609;52.430;4.668;2022-07-06T02:35:05;1.95;;;0.85;;
71777;SDS011;59609;52.430;4.668;2022-07-06T02:37:31;4.00;;;1.00;;
71777;SDS011;59609;52.430;4.668;2022-07-06T02:39:56;1.88;;;0.80;;
71777;SDS011;59609;52.430;4.668;2022-07-06T02:42:22;2.13;;;0.90;;
71777;SDS011;59609;52.430;4.668;2022-07-06T02:44:47;3.72;;;1.10;;
71777;SDS011;59609;52.430;4.668;2022-07-06T02:47:12;2.97;;;0.85;;
71777;SDS011;59609;52.430;4.668;2022-07-06T02:49:38;1.80;;;0.85;;
71777;SDS011;59609;52.430;4.668;2022-07-06T02:52:03;1.02;;;0.80;;
71777;SDS011;59609;52.430;4.668;2022-07-06T02:54:29;2.47;;;0.70;;
71777;SDS011;59609;52.430;4.668;2022-07-06T02:56:54;1.63;;;0.75;;
71777;SDS011;59609;52.430;4.668;2022-07-06T02:59:19;1.80;;;0.98;;
71777;SDS011;59609;52.430;4.668;2022-07-06T03:01:45;2.25;;;0.73;;
71777;SDS011;59609;52.430;4.668;2022-07-06T03:04:10;1.13;;;0.80;;
71777;SDS011;59609;52.430;4.668;2022-07-06T03:06:36;2.47;;;0.80;;
71777;SDS011;59609;52.430;4.668;2022-07-06T03:09:01;1.25;;;0.75;;
71777;SDS011;59609;52.430;4.668;2022-07-06T03:11:27;1.40;;;0.90;;
71777;SDS011;59609;52.430;4.668;2022-07-06T03:13:52;2.40;;;0.80;;
71777;SDS011;59609;52.430;4.668;2022-07-06T03:16:18;3.95;;;1.25;;
71777;SDS011;59609;52.430;4.668;2022-07-06T03:18:43;3.53;;;0.90;;
71777;SDS011;59609;52.430;4.668;2022-07-06T03:21:08;1.95;;;0.90;;
71777;SDS011;59609;52.430;4.668;2022-07-06T03:23:34;2.72;;;0.90;;
71777;SDS011;59609;52.430;4.668;2022-07-06T03:25:59;3.13;;;0.70;;
71777;SDS011;59609;52.430;4.668;2022-07-06T03:28:25;2.08;;;0.77;;
71777;SDS011;59609;52.430;4.668;2022-07-06T03:30:50;5.63;;;1.20;;
71777;SDS011;59609;52.430;4.668;2022-07-06T03:33:15;1.17;;;1.00;;
71777;SDS011;59609;52.430;4.668;2022-07-06T03:35:41;1.88;;;0.80;;
71777;SDS011;59609;52.430;4.668;2022-07-06T03:38:06;2.00;;;0.80;;
71777;SDS011;59609;52.430;4.668;2022-07-06T03:40:31;4.55;;;1.13;;
71777;SDS011;59609;52.430;4.668;2022-07-06T03:42:57;1.90;;;0.80;;
71777;SDS011;59609;52.430;4.668;2022-07-06T03:45:22;3.40;;;0.95;;
71777;SDS011;59609;52.430;4.668;2022-07-06T03:47:47;1.20;;;0.95;;
71777;SDS011;59609;52.430;4.668;2022-07-06T03:50:13;3.78;;;0.80;;
71777;SDS011;59609;52.430;4.668;2022-07-06T03:52:38;2.38;;;1.00;;
71777;SDS011;59609;52.430;4.668;2022-07-06T03:55:06;2.67;;;1.05;;
71777;SDS011;59609;52.430;4.668;2022-07-06T03:57:35;5.38;;;1.08;;
71777;SDS011;59609;52.430;4.668;2022-07-06T04:00:02;2.75;;;0.98;;
71777;SDS011;59609;52.430;4.668;2022-07-06T04:02:28;3.80;;;1.08;;
71777;SDS011;59609;52.430;4.668;2022-07-06T04:04:53;3.72;;;1.33;;
71777;SDS011;59609;52.430;4.668;2022-07-06T04:07:19;4.28;;;0.98;;
71777;SDS011;59609;52.430;4.668;2022-07-06T04:09:44;1.15;;;1.00;;
71777;SDS011;59609;52.430;4.668;2022-07-06T04:12:10;3.42;;;0.70;;
71777;SDS011;59609;52.430;4.668;2022-07-06T04:14:35;2.70;;;0.63;;
71777;SDS011;59609;52.430;4.668;2022-07-06T04:17:00;2.33;;;0.93;;
71777;SDS011;59609;52.430;4.668;2022-07-06T04:19:46;2.42;;;0.82;;
71777;SDS011;59609;52.430;4.668;2022-07-06T04:22:11;4.93;;;0.90;;
71777;SDS011;59609;52.430;4.668;2022-07-06T04:24:37;3.40;;;0.75;;
71777;SDS011;59609;52.430;4.668;2022-07-06T04:27:02;2.20;;;0.80;;
71777;SDS011;59609;52.430;4.668;2022-07-06T04:29:27;6.05;;;1.02;;
71777;SDS011;59609;52.430;4.668;2022-07-06T04:31:53;1.98;;;0.80;;
71777;SDS011;59609;52.430;4.668;2022-07-06T04:34:18;3.30;;;0.90;;
71777;SDS011;59609;52.430;4.668;2022-07-06T04:36:43;8.55;;;1.20;;
71777;SDS011;59609;52.430;4.668;2022-07-06T04:39:09;3.78;;;1.00;;
71777;SDS011;59609;52.430;4.668;2022-07-06T04:41:34;3.08;;;0.80;;
71777;SDS011;59609;52.430;4.668;2022-07-06T04:43:59;5.38;;;0.77;;
71777;SDS011;59609;52.430;4.668;2022-07-06T04:46:25;2.78;;;0.95;;
71777;SDS011;59609;52.430;4.668;2022-07-06T04:48:50;2.53;;;0.80;;
71777;SDS011;59609;52.430;4.668;2022-07-06T04:51:15;5.03;;;0.90;;
71777;SDS011;59609;52.430;4.668;2022-07-06T04:53:41;6.50;;;1.20;;
71777;SDS011;59609;52.430;4.668;2022-07-06T04:56:07;5.05;;;1.15;;
71777;SDS011;59609;52.430;4.668;2022-07-06T04:58:32;1.65;;;1.00;;
71777;SDS011;59609;52.430;4.668;2022-07-06T05:00:57;2.50;;;0.75;;
71777;SDS011;59609;52.430;4.668;2022-07-06T05:03:23;4.55;;;1.25;;
71777;SDS011;59609;52.430;4.668;2022-07-06T05:05:48;2.70;;;1.35;;
71777;SDS011;59609;52.430;4.668;2022-07-06T05:08:13;3.20;;;1.27;;
71777;SDS011;59609;52.430;4.668;2022-07-06T05:10:39;4.10;;;1.05;;
71777;SDS011;59609;52.430;4.668;2022-07-06T05:13:04;5.10;;;1.08;;
71777;SDS011;59609;52.430;4.668;2022-07-06T05:15:30;3.33;;;1.02;;
71777;SDS011;59609;52.430;4.668;2022-07-06T05:17:55;2.05;;;1.10;;
71777;SDS011;59609;52.430;4.668;2022-07-06T05:20:21;4.85;;;1.25;;
71777;SDS011;59609;52.430;4.668;2022-07-06T05:22:46;4.07;;;1.00;;
71777;SDS011;59609;52.430;4.668;2022-07-06T05:25:12;1.92;;;1.10;;
71777;SDS011;59609;52.430;4.668;2022-07-06T05:27:37;1.83;;;0.80;;
71777;SDS011;59609;52.430;4.668;2022-07-06T05:30:03;3.30;;;1.10;;
71777;SDS011;59609;52.430;4.668;2022-07-06T05:32:28;3.75;;;0.52;;
71777;SDS011;59609;52.430;4.668;2022-07-06T05:34:54;3.77;;;1.40;;
71777;SDS011;59609;52.430;4.668;2022-07-06T05:37:19;1.77;;;1.08;;
71777;SDS011;59609;52.430;4.668;2022-07-06T05:39:44;3.20;;;1.02;;
71777;SDS011;59609;52.430;4.668;2022-07-06T05:42:12;3.03;;;0.80;;
71777;SDS011;59609;52.430;4.668;2022-07-06T05:44:37;0.43;;;0.30;;
71777;SDS011;59609;52.430;4.668;2022-07-06T05:47:03;1.30;;;0.50;;
71777;SDS011;59609;52.430;4.668;2022-07-06T05:49:47;4.72;;;0.90;;
71777;SDS011;59609;52.430;4.668;2022-07-06T05:52:31;3.58;;;1.05;;
71777;SDS011;59609;52.430;4.668;2022-07-06T05:54:56;1.60;;;0.70;;
71777;SDS011;59609;52.430;4.668;2022-07-06T05:57:22;3.25;;;0.90;;
71777;SDS011;59609;52.430;4.668;2022-07-06T05:59:47;1.50;;;1.02;;
71777;SDS011;59609;52.430;4.668;2022-07-06T06:02:12;2.70;;;0.82;;
71777;SDS011;59609;52.430;4.668;2022-07-06T06:04:38;1.67;;;0.85;;
71777;SDS011;59609;52.430;4.668;2022-07-06T06:07:03;1.38;;;0.90;;
71777;SDS011;59609;52.430;4.668;2022-07-06T06:09:29;0.82;;;0.75;;
71777;SDS011;59609;52.430;4.668;2022-07-06T06:11:54;1.08;;;0.90;;
71777;SDS011;59609;52.430;4.668;2022-07-06T06:14:19;2.63;;;1.13;;
71777;SDS011;59609;52.430;4.668;2022-07-06T06:16:45;1.63;;;0.90;;
71777;SDS011;59609;52.430;4.668;2022-07-06T06:19:10;0.77;;;0.77;;
71777;SDS011;59609;52.430;4.668;2022-07-06T06:21:35;4.18;;;0.80;;
71777;SDS011;59609;52.430;4.668;2022-07-06T06:24:00;2.47;;;0.80;;
71777;SDS011;59609;52.430;4.668;2022-07-06T06:26:26;0.73;;;0.73;;
71777;SDS011;59609;52.430;4.668;2022-07-06T06:28:51;2.97;;;0.82;;
71777;SDS011;59609;52.430;4.668;2022-07-06T06:31:16;1.60;;;0.98;;
71777;SDS011;59609;52.430;4.668;2022-07-06T06:33:42;0.88;;;0.80;;
71777;SDS011;59609;52.430;4.668;2022-07-06T06:36:07;3.05;;;0.65;;
71777;SDS011;59609;52.430;4.668;2022-07-06T06:38:33;3.08;;;0.55;;
71777;SDS011;59609;52.430;4.668;2022-07-06T06:40:58;1.65;;;0.93;;
71777;SDS011;59609;52.430;4.668;2022-07-06T06:43:26;1.25;;;0.80;;
71777;SDS011;59609;52.430;4.668;2022-07-06T06:45:52;1.30;;;1.10;;
71777;SDS011;59609;52.430;4.668;2022-07-06T06:48:17;1.73;;;0.85;;
71777;SDS011;59609;52.430;4.668;2022-07-06T06:50:44;0.77;;;0.73;;
71777;SDS011;59609;52.430;4.668;2022-07-06T06:53:10;1.30;;;0.70;;
71777;SDS011;59609;52.430;4.668;2022-07-06T06:55:36;1.70;;;1.02;;
71777;SDS011;59609;52.430;4.668;2022-07-06T06:58:01;0.90;;;0.90;;
71777;SDS011;59609;52.430;4.668;2022-07-06T07:00:26;0.88;;;0.68;;
71777;SDS011;59609;52.430;4.668;2022-07-06T07:02:51;0.75;;;0.60;;
71777;SDS011;59609;52.430;4.668;2022-07-06T07:05:17;0.63;;;0.60;;
71777;SDS011;59609;52.430;4.668;2022-07-06T07:07:42;1.40;;;0.70;;
71777;SDS011;59609;52.430;4.668;2022-07-06T07:10:08;1.17;;;0.88;;
71777;SDS011;59609;52.430;4.668;2022-07-06T07:12:34;1.17;;;0.50;;
71777;SDS011;59609;52.430;4.668;2022-07-06T07:14:59;1.35;;;0.90;;
71777;SDS011;59609;52.430;4.668;2022-07-06T07:17:25;0.73;;;0.73;;
71777;SDS011;59609;52.430;4.668;2022-07-06T07:19:51;1.05;;;0.85;;
71777;SDS011;59609;52.430;4.668;2022-07-06T07:22:16;2.45;;;0.60;;
71777;SDS011;59609;52.430;4.668;2022-07-06T07:24:42;5.32;;;0.80;;
71777;SDS011;59609;52.430;4.668;2022-07-06T07:27:07;0.82;;;0.75;;
71777;SDS011;59609;52.430;4.668;2022-07-06T07:29:33;2.88;;;0.85;;
71777;SDS011;59609;52.430;4.668;2022-07-06T07:31:58;3.08;;;0.95;;
71777;SDS011;59609;52.430;4.668;2022-07-06T07:34:23;0.65;;;0.63;;
71777;SDS011;59609;52.430;4.668;2022-07-06T07:36:49;1.17;;;0.70;;
71777;SDS011;59609;52.430;4.668;2022-07-06T07:39:14;3.28;;;1.08;;
71777;SDS011;59609;52.430;4.668;2022-07-06T07:41:40;1.85;;;0.75;;
71777;SDS011;59609;52.430;4.668;2022-07-06T07:44:05;0.60;;;0.60;;
71777;SDS011;59609;52.430;4.668;2022-07-06T07:46:30;2.05;;;0.80;;
71777;SDS011;59609;52.430;4.668;2022-07-06T07:48:56;0.68;;;0.52;;
71777;SDS011;59609;52.430;4.668;2022-07-06T07:51:21;0.90;;;0.82;;
71777;SDS011;59609;52.430;4.668;2022-07-06T07:53:47;0.70;;;0.70;;
71777;SDS011;59609;52.430;4.668;2022-07-06T07:56:12;1.05;;;0.80;;
71777;SDS011;59609;52.430;4.668;2022-07-06T07:58:37;0.93;;;0.70;;
71777;SDS011;59609;52.430;4.668;2022-07-06T08:01:03;1.85;;;0.75;;
71777;SDS011;59609;52.430;4.668;2022-07-06T08:03:29;0.95;;;0.88;;
71777;SDS011;59609;52.430;4.668;2022-07-06T08:05:55;2.03;;;0.90;;
71777;SDS011;59609;52.430;4.668;2022-07-06T08:08:20;1.83;;;0.90;;
71777;SDS011;59609;52.430;4.668;2022-07-06T08:10:46;1.30;;;0.90;;
71777;SDS011;59609;52.430;4.668;2022-07-06T08:13:11;0.90;;;0.90;;
71777;SDS011;59609;52.430;4.668;2022-07-06T08:18:04;0.77;;;0.77;;
71777;SDS011;59609;52.430;4.668;2022-07-06T08:20:30;1.63;;;0.98;;
71777;SDS011;59609;52.430;4.668;2022-07-06T08:22:55;1.13;;;0.82;;
71777;SDS011;59609;52.430;4.668;2022-07-06T08:25:21;1.27;;;1.17;;
71777;SDS011;59609;52.430;4.668;2022-07-06T08:27:46;1.77;;;1.08;;
71777;SDS011;59609;52.430;4.668;2022-07-06T08:30:12;3.00;;;1.40;;
71777;SDS011;59609;52.430;4.668;2022-07-06T08:32:38;1.45;;;0.85;;
71777;SDS011;59609;52.430;4.668;2022-07-06T08:35:08;1.10;;;0.80;;
71777;SDS011;59609;52.430;4.668;2022-07-06T08:37:34;1.50;;;1.00;;
71777;SDS011;59609;52.430;4.668;2022-07-06T08:39:59;0.70;;;0.70;;
71777;SDS011;59609;52.430;4.668;2022-07-06T08:42:26;2.00;;;0.55;;
71777;SDS011;59609;52.430;4.668;2022-07-06T08:44:55;1.63;;;1.00;;
71777;SDS011;59609;52.430;4.668;2022-07-06T08:47:24;1.23;;;0.70;;
71777;SDS011;59609;52.430;4.668;2022-07-06T08:49:54;1.55;;;1.00;;
71777;SDS011;59609;52.430;4.668;2022-07-06T08:52:22;2.58;;;1.00;;
71777;SDS011;59609;52.430;4.668;2022-07-06T08:54:49;3.83;;;0.90;;
71777;SDS011;59609;52.430;4.668;2022-07-06T08:57:14;2.58;;;0.95;;
71777;SDS011;59609;52.430;4.668;2022-07-06T08:59:40;1.85;;;0.80;;
71777;SDS011;59609;52.430;4.668;2022-07-06T09:02:05;2.88;;;1.05;;
71777;SDS011;59609;52.430;4.668;2022-07-06T09:04:34;1.17;;;1.02;;
71777;SDS011;59609;52.430;4.668;2022-07-06T09:07:01;1.65;;;1.02;;
71777;SDS011;59609;52.430;4.668;2022-07-06T09:09:27;2.08;;;0.85;;
71777;SDS011;59609;52.430;4.668;2022-07-06T09:11:55;1.15;;;1.08;;
71777;SDS011;59609;52.430;4.668;2022-07-06T09:14:21;2.28;;;1.10;;
71777;SDS011;59609;52.430;4.668;2022-07-06T09:16:49;3.67;;;2.10;;
71777;SDS011;59609;52.430;4.668;2022-07-06T09:19:17;1.80;;;1.02;;
71777;SDS011;59609;52.430;4.668;2022-07-06T09:21:43;2.47;;;1.02;;
71777;SDS011;59609;52.430;4.668;2022-07-06T09:24:09;1.23;;;0.93;;
71777;SDS011;59609;52.430;4.668;2022-07-06T09:26:36;0.90;;;0.90;;
71777;SDS011;59609;52.430;4.668;2022-07-06T09:29:03;1.40;;;1.10;;
71777;SDS011;59609;52.430;4.668;2022-07-06T09:31:29;2.05;;;0.85;;
71777;SDS011;59609;52.430;4.668;2022-07-06T09:33:59;0.82;;;0.80;;
71777;SDS011;59609;52.430;4.668;2022-07-06T09:36:39;2.22;;;1.02;;
71777;SDS011;59609;52.430;4.668;2022-07-06T09:39:17;1.13;;;0.80;;
71777;SDS011;59609;52.430;4.668;2022-07-06T09:41:49;0.93;;;0.80;;
71777;SDS011;59609;52.430;4.668;2022-07-06T09:44:23;1.42;;;0.90;;
71777;SDS011;59609;52.430;4.668;2022-07-06T09:46:49;1.05;;;1.00;;
71777;SDS011;59609;52.430;4.668;2022-07-06T09:49:19;0.80;;;0.80;;
71777;SDS011;59609;52.430;4.668;2022-07-06T09:51:46;2.05;;;0.95;;
71777;SDS011;59609;52.430;4.668;2022-07-06T09:54:12;1.35;;;1.20;;
71777;SDS011;59609;52.430;4.668;2022-07-06T09:56:39;2.15;;;1.20;;
71777;SDS011;59609;52.430;4.668;2022-07-06T09:59:08;0.73;;;0.73;;
71777;SDS011;59609;52.430;4.668;2022-07-06T10:01:34;0.90;;;0.90;;
71777;SDS011;59609;52.430;4.668;2022-07-06T10:04:01;1.60;;;1.08;;
71777;SDS011;59609;52.430;4.668;2022-07-06T10:06:26;1.65;;;1.55;;
71777;SDS011;59609;52.430;4.668;2022-07-06T10:08:52;3.03;;;1.15;;
71777;SDS011;59609;52.430;4.668;2022-07-06T10:11:19;3.72;;;1.20;;
71777;SDS011;59609;52.430;4.668;2022-07-06T10:13:46;1.50;;;1.05;;
71777;SDS011;59609;52.430;4.668;2022-07-06T10:16:14;1.70;;;1.13;;
71777;SDS011;59609;52.430;4.668;2022-07-06T10:18:40;1.65;;;1.17;;
71777;SDS011;59609;52.430;4.668;2022-07-06T10:21:06;0.65;;;0.63;;
71777;SDS011;59609;52.430;4.668;2022-07-06T10:23:32;1.70;;;1.15;;
71777;SDS011;59609;52.430;4.668;2022-07-06T10:25:59;1.00;;;1.00;;
71777;SDS011;59609;52.430;4.668;2022-07-06T10:28:26;1.75;;;1.00;;
71777;SDS011;59609;52.430;4.668;2022-07-06T10:30:52;1.15;;;1.13;;
71777;SDS011;59609;52.430;4.668;2022-07-06T10:33:17;2.03;;;0.93;;
71777;SDS011;59609;52.430;4.668;2022-07-06T10:35:43;1.38;;;1.05;;
71777;SDS011;59609;52.430;4.668;2022-07-06T10:38:10;1.23;;;1.00;;
71777;SDS011;59609;52.430;4.668;2022-07-06T10:40:38;3.47;;;1.27;;
71777;SDS011;59609;52.430;4.668;2022-07-06T10:46:06;1.60;;;1.02;;
71777;SDS011;59609;52.430;4.668;2022-07-06T10:48:36;1.85;;;1.05;;
71777;SDS011;59609;52.430;4.668;2022-07-06T10:51:02;1.45;;;0.80;;
71777;SDS011;59609;52.430;4.668;2022-07-06T10:53:39;1.30;;;1.20;;
71777;SDS011;59609;52.430;4.668;2022-07-06T10:56:06;1.48;;;1.15;;
71777;SDS011;59609;52.430;4.668;2022-07-06T11:01:10;0.93;;;0.93;;
71777;SDS011;59609;52.430;4.668;2022-07-06T11:03:43;1.00;;;1.00;;
71777;SDS011;59609;52.430;4.668;2022-07-06T11:13:56;2.40;;;1.63;;
71777;SDS011;59609;52.430;4.668;2022-07-06T11:19:05;1.50;;;1.20;;
71777;SDS011;59609;52.430;4.668;2022-07-06T11:21:45;3.10;;;1.00;;
71777;SDS011;59609;52.430;4.668;2022-07-06T11:24:13;2.00;;;1.10;;
71777;SDS011;59609;52.430;4.668;2022-07-06T11:26:45;2.78;;;1.25;;
71777;SDS011;59609;52.430;4.668;2022-07-06T11:29:12;1.65;;;1.20;;
71777;SDS011;59609;52.430;4.668;2022-07-06T11:31:41;0.95;;;0.95;;
71777;SDS011;59609;52.430;4.668;2022-07-06T11:34:09;2.70;;;1.00;;
71777;SDS011;59609;52.430;4.668;2022-07-06T11:39:03;1.20;;;1.20;;
71777;SDS011;59609;52.430;4.668;2022-07-06T11:41:30;1.67;;;1.10;;
71777;SDS011;59609;52.430;4.668;2022-07-06T11:43:55;2.00;;;1.40;;
71777;SDS011;59609;52.430;4.668;2022-07-06T11:46:25;1.40;;;1.23;;
71777;SDS011;59609;52.430;4.668;2022-07-06T11:49:03;3.15;;;0.60;;
71777;SDS011;59609;52.430;4.668;2022-07-06T11:51:37;1.67;;;1.33;;
71777;SDS011;59609;52.430;4.668;2022-07-06T11:54:14;2.85;;;1.40;;
71777;SDS011;59609;52.430;4.668;2022-07-06T11:59:19;1.20;;;1.08;;
71777;SDS011;59609;52.430;4.668;2022-07-06T12:01:47;2.80;;;1.20;;
71777;SDS011;59609;52.430;4.668;2022-07-06T12:04:12;1.20;;;1.20;;
71777;SDS011;59609;52.430;4.668;2022-07-06T12:06:37;2.97;;;1.30;;
71777;SDS011;59609;52.430;4.668;2022-07-06T12:09:03;1.20;;;1.00;;
71777;SDS011;59609;52.430;4.668;2022-07-06T12:11:29;0.90;;;0.85;;
71777;SDS011;59609;52.430;4.668;2022-07-06T12:13:58;1.42;;;1.23;;
71777;SDS011;59609;52.430;4.668;2022-07-06T12:16:35;1.70;;;1.15;;
71777;SDS011;59609;52.430;4.668;2022-07-06T12:19:04;2.35;;;1.30;;
71777;SDS011;59609;52.430;4.668;2022-07-06T12:21:32;3.40;;;1.60;;
71777;SDS011;59609;52.430;4.668;2022-07-06T12:23:58;1.27;;;1.27;;
71777;SDS011;59609;52.430;4.668;2022-07-06T12:26:25;1.67;;;1.00;;
71777;SDS011;59609;52.430;4.668;2022-07-06T12:29:04;3.03;;;1.65;;
71777;SDS011;59609;52.430;4.668;2022-07-06T12:31:37;1.52;;;1.42;;
71777;SDS011;59609;52.430;4.668;2022-07-06T12:34:25;3.53;;;1.23;;
71777;SDS011;59609;52.430;4.668;2022-07-06T12:36:56;3.08;;;1.50;;
71777;SDS011;59609;52.430;4.668;2022-07-06T12:39:24;2.25;;;1.65;;
71777;SDS011;59609;52.430;4.668;2022-07-06T12:41:51;2.42;;;2.15;;
71777;SDS011;59609;52.430;4.668;2022-07-06T12:44:22;1.75;;;1.65;;
71777;SDS011;59609;52.430;4.668;2022-07-06T12:47:01;1.92;;;1.83;;
71777;SDS011;59609;52.430;4.668;2022-07-06T12:52:30;3.88;;;0.95;;
71777;SDS011;59609;52.430;4.668;2022-07-06T12:54:59;3.00;;;1.45;;
71777;SDS011;59609;52.430;4.668;2022-07-06T12:57:25;2.47;;;1.88;;
71777;SDS011;59609;52.430;4.668;2022-07-06T13:04:53;1.65;;;1.55;;
71777;SDS011;59609;52.430;4.668;2022-07-06T13:07:24;3.45;;;1.67;;
71777;SDS011;59609;52.430;4.668;2022-07-06T13:09:50;2.25;;;1.50;;
71777;SDS011;59609;52.430;4.668;2022-07-06T13:12:16;3.58;;;1.42;;
71777;SDS011;59609;52.430;4.668;2022-07-06T13:14:41;7.25;;;1.60;;
71777;SDS011;59609;52.430;4.668;2022-07-06T13:17:07;3.17;;;1.63;;
71777;SDS011;59609;52.430;4.668;2022-07-06T13:19:32;9.52;;;2.10;;
71777;SDS011;59609;52.430;4.668;2022-07-06T13:21:57;3.95;;;1.17;;
71777;SDS011;59609;52.430;4.668;2022-07-06T13:24:23;2.58;;;1.80;;
71777;SDS011;59609;52.430;4.668;2022-07-06T13:26:48;2.97;;;1.92;;
71777;SDS011;59609;52.430;4.668;2022-07-06T13:29:14;7.05;;;2.00;;
71777;SDS011;59609;52.430;4.668;2022-07-06T13:31:39;6.03;;;2.20;;
71777;SDS011;59609;52.430;4.668;2022-07-06T13:34:05;4.22;;;2.03;;
71777;SDS011;59609;52.430;4.668;2022-07-06T13:36:31;8.00;;;2.22;;
71777;SDS011;59609;52.430;4.668;2022-07-06T13:38:56;5.65;;;2.08;;
71777;SDS011;59609;52.430;4.668;2022-07-06T13:41:22;6.22;;;2.80;;
71777;SDS011;59609;52.430;4.668;2022-07-06T13:43:47;3.63;;;2.40;;
71777;SDS011;59609;52.430;4.668;2022-07-06T13:46:12;6.32;;;2.35;;
71777;SDS011;59609;52.430;4.668;2022-07-06T13:48:38;3.20;;;2.30;;
71777;SDS011;59609;52.430;4.668;2022-07-06T13:51:03;5.53;;;2.92;;
71777;SDS011;59609;52.430;4.668;2022-07-06T13:53:29;5.85;;;3.22;;
71777;SDS011;59609;52.430;4.668;2022-07-06T13:55:56;6.38;;;3.90;;
71777;SDS011;59609;52.430;4.668;2022-07-06T13:58:22;14.77;;;6.75;;
71777;SDS011;59609;52.430;4.668;2022-07-06T14:00:47;11.48;;;7.97;;
71777;SDS011;59609;52.430;4.668;2022-07-06T14:03:12;18.40;;;9.75;;
71777;SDS011;59609;52.430;4.668;2022-07-06T14:05:38;14.20;;;9.05;;
71777;SDS011;59609;52.430;4.668;2022-07-06T14:08:03;13.80;;;7.88;;
71777;SDS011;59609;52.430;4.668;2022-07-06T14:10:28;12.82;;;8.25;;
71777;SDS011;59609;52.430;4.668;2022-07-06T14:12:54;10.25;;;7.80;;
71777;SDS011;59609;52.430;4.668;2022-07-06T14:15:19;11.57;;;7.38;;
71777;SDS011;59609;52.430;4.668;2022-07-06T14:17:45;13.13;;;7.20;;
71777;SDS011;59609;52.430;4.668;2022-07-06T14:20:12;8.05;;;6.18;;
71777;SDS011;59609;52.430;4.668;2022-07-06T14:22:38;10.77;;;4.93;;
71777;SDS011;59609;52.430;4.668;2022-07-06T14:25:03;6.40;;;3.90;;
71777;SDS011;59609;52.430;4.668;2022-07-06T14:27:30;5.53;;;2.85;;
71777;SDS011;59609;52.430;4.668;2022-07-06T14:29:55;4.18;;;2.90;;
71777;SDS011;59609;52.430;4.668;2022-07-06T14:32:21;3.25;;;2.45;;
71777;SDS011;59609;52.430;4.668;2022-07-06T14:34:46;7.60;;;2.80;;
71777;SDS011;59609;52.430;4.668;2022-07-06T14:37:11;4.25;;;2.38;;
71777;SDS011;59609;52.430;4.668;2022-07-06T14:39:37;4.88;;;2.53;;
71777;SDS011;59609;52.430;4.668;2022-07-06T14:42:02;3.15;;;2.08;;
71777;SDS011;59609;52.430;4.668;2022-07-06T14:44:28;3.60;;;1.95;;
71777;SDS011;59609;52.430;4.668;2022-07-06T14:46:53;6.45;;;2.47;;
71777;SDS011;59609;52.430;4.668;2022-07-06T14:49:19;3.20;;;1.80;;
71777;SDS011;59609;52.430;4.668;2022-07-06T14:51:44;3.50;;;1.92;;
71777;SDS011;59609;52.430;4.668;2022-07-06T14:54:09;4.38;;;2.20;;
71777;SDS011;59609;52.430;4.668;2022-07-06T14:56:35;4.45;;;1.67;;
71777;SDS011;59609;52.430;4.668;2022-07-06T14:59:00;3.35;;;2.00;;
71777;SDS011;59609;52.430;4.668;2022-07-06T15:01:26;6.30;;;2.08;;
71777;SDS011;59609;52.430;4.668;2022-07-06T15:03:51;3.17;;;1.67;;
71777;SDS011;59609;52.430;4.668;2022-07-06T15:06:17;3.90;;;1.73;;
71777;SDS011;59609;52.430;4.668;2022-07-06T15:08:42;3.70;;;1.95;;
71777;SDS011;59609;52.430;4.668;2022-07-06T15:11:08;3.38;;;1.60;;
71777;SDS011;59609;52.430;4.668;2022-07-06T15:13:33;3.97;;;1.90;;
71777;SDS011;59609;52.430;4.668;2022-07-06T15:15:58;6.05;;;1.90;;
71777;SDS011;59609;52.430;4.668;2022-07-06T15:18:24;4.07;;;1.77;;